createdAt,value
2019-06-10T00:01:31.461Z,16.35
2019-06-10T00:06:37.511Z,16.36
2019-06-10T00:11:43.572Z,16.32
2019-06-10T00:16:50.821Z,16.20
2019-06-10T00:21:57.400Z,16.19
2019-06-10T00:27:05.498Z,16.21
2019-06-10T00:32:12.718Z,16.12
2019-06-10T00:37:16.824Z,16.08
2019-06-10T00:42:23.173Z,16.15
2019-06-10T00:47:30.790Z,16.09
2019-06-10T00:52:35.703Z,16.12
2019-06-10T00:57:41.817Z,16.17
2019-06-10T01:02:48.049Z,16.20
2019-06-10T01:07:53.311Z,16.13
2019-06-10T01:13:00.838Z,16.19
2019-06-10T01:18:07.564Z,16.18
2019-06-10T01:23:15.599Z,16.25
2019-06-10T01:28:21.998Z,16.31
2019-06-10T01:33:27.838Z,16.24
2019-06-10T01:38:33.142Z,16.27
2019-06-10T01:43:40.650Z,16.32
2019-06-10T01:48:48.220Z,16.32
2019-06-10T01:53:52.263Z,16.32
2019-06-10T01:58:57.509Z,16.28
2019-06-10T02:04:02.790Z,16.28
2019-06-10T02:09:09.675Z,16.25
2019-06-10T02:14:17.860Z,16.23
2019-06-10T02:19:23.014Z,16.23
2019-06-10T02:24:31.314Z,16.10
2019-06-10T02:29:35.920Z,16.08
2019-06-10T02:35:00.882Z,16.09
2019-06-10T02:39:48.445Z,16.04
2019-06-10T02:44:54.238Z,16.04
2019-06-10T02:50:04.551Z,16.00
2019-06-10T02:55:07.266Z,15.99
2019-06-10T03:00:20.875Z,16.00
2019-06-10T03:05:24.961Z,16.01
2019-06-10T03:10:31.053Z,16.00
2019-06-10T03:15:36.120Z,15.83
2019-06-10T03:20:42.616Z,15.73
2019-06-10T03:25:59.027Z,15.72
2019-06-10T03:31:06.193Z,15.74
2019-06-10T03:36:13.313Z,15.74
2019-06-10T03:41:18.876Z,15.74
2019-06-10T03:46:26.906Z,15.70
2019-06-10T03:51:33.333Z,15.69
2019-06-10T03:56:39.576Z,15.72
2019-06-10T04:01:47.306Z,15.68
2019-06-10T04:06:53.368Z,15.63
2019-06-10T04:11:58.748Z,15.67
2019-06-10T04:17:04.555Z,15.65
2019-06-10T04:22:12.936Z,15.67
2019-06-10T04:27:17.786Z,15.66
2019-06-10T04:32:24.556Z,15.72
2019-06-10T04:37:32.327Z,15.70
2019-06-10T04:42:37.271Z,15.77
2019-06-10T04:47:43.259Z,15.85
2019-06-10T04:52:49.359Z,15.84
2019-06-10T04:57:55.620Z,15.89
2019-06-10T05:03:02.900Z,15.95
2019-06-10T05:08:08.186Z,16.01
2019-06-10T05:13:15.537Z,16.08
2019-06-10T05:18:25.122Z,16.21
2019-06-10T05:23:32.972Z,16.39
2019-06-10T05:28:37.914Z,16.35
2019-06-10T05:33:43.319Z,16.35
2019-06-10T05:38:48.807Z,16.47
2019-06-10T05:43:54.260Z,16.71
2019-06-10T05:48:59.742Z,16.96
2019-06-10T05:54:05.514Z,17.05
2019-06-10T05:59:12.067Z,17.00
2019-06-10T06:04:17.434Z,16.98
2019-06-10T06:09:25.124Z,17.06
2019-06-10T06:14:32.230Z,17.14
2019-06-10T06:19:38.870Z,17.14
2019-06-10T06:24:44.204Z,17.29
2019-06-10T06:29:52.326Z,17.39
2019-06-10T06:34:56.971Z,17.43
2019-06-10T06:40:02.920Z,17.64
2019-06-10T06:45:09.198Z,17.82
2019-06-10T06:50:14.674Z,18.00
2019-06-10T06:55:19.913Z,18.14
2019-06-10T07:00:53.051Z,18.37
2019-06-10T07:05:43.444Z,18.58
2019-06-10T07:10:49.103Z,18.78
2019-06-10T07:15:54.388Z,18.89
2019-06-10T07:21:02.683Z,18.74
2019-06-10T07:26:07.999Z,18.76
2019-06-10T07:31:23.204Z,19.01
2019-06-10T07:36:23.319Z,19.17
2019-06-10T07:41:27.781Z,19.47
2019-06-10T07:46:36.053Z,19.80
2019-06-10T07:51:42.128Z,19.82
2019-06-10T07:56:50.514Z,19.93
2019-06-10T08:01:55.354Z,20.20
2019-06-10T08:07:03.183Z,20.52
2019-06-10T08:12:08.081Z,20.97
2019-06-10T08:17:14.414Z,21.16
2019-06-10T08:22:31.240Z,21.17
2019-06-10T08:27:27.589Z,21.15
2019-06-10T08:32:33.553Z,21.28
2019-06-10T08:37:40.778Z,21.45
2019-06-10T08:42:47.336Z,21.60
2019-06-10T08:47:54.183Z,21.84
2019-06-10T08:53:10.325Z,22.21
2019-06-10T08:58:06.992Z,22.37
2019-06-10T09:03:12.695Z,22.53
2019-06-10T09:08:18.441Z,22.52
2019-06-10T09:13:23.739Z,22.78
2019-06-10T09:18:29.791Z,22.94
2019-06-10T09:23:35.041Z,22.86
2019-06-10T09:28:41.534Z,22.98
2019-06-10T09:33:50.854Z,23.03
2019-06-10T09:38:55.662Z,23.06
2019-06-10T09:44:03.206Z,23.06
2019-06-10T09:49:08.490Z,23.52
2019-06-10T09:54:15.345Z,23.81
2019-06-10T09:59:23.467Z,23.78
2019-06-10T10:04:28.659Z,23.77
2019-06-10T10:09:36.983Z,24.16
2019-06-10T10:14:44.777Z,24.37
2019-06-10T10:19:50.340Z,24.43
2019-06-10T10:24:56.995Z,24.56
2019-06-10T10:30:03.853Z,24.91
2019-06-10T10:35:09.367Z,25.28
2019-06-10T10:40:14.753Z,24.86
2019-06-10T10:45:22.675Z,24.79
2019-06-10T10:50:28.321Z,25.26
2019-06-10T10:55:33.534Z,25.33
2019-06-10T11:00:49.263Z,25.19
2019-06-10T11:06:00.525Z,25.43
2019-06-10T11:11:05.154Z,25.40
2019-06-10T11:16:10.681Z,25.57
2019-06-10T11:21:16.002Z,25.88
2019-06-10T11:26:22.822Z,25.78
2019-06-10T11:31:28.264Z,25.62
2019-06-10T11:36:33.510Z,25.45
2019-06-10T11:41:39.275Z,25.51
2019-06-10T11:46:44.541Z,25.26
2019-06-10T11:51:52.637Z,25.03
2019-06-10T11:56:58.571Z,25.03
2019-06-10T12:02:06.065Z,25.11
2019-06-10T12:07:12.925Z,25.08
2019-06-10T12:12:17.906Z,25.54
2019-06-10T12:17:40.946Z,25.61
2019-06-10T12:22:32.954Z,25.90
2019-06-10T12:27:37.704Z,26.03
2019-06-10T12:32:43.826Z,26.13
2019-06-10T12:37:49.448Z,26.40
2019-06-10T12:42:57.752Z,26.60
2019-06-10T12:48:06.283Z,26.68
2019-06-10T12:53:12.497Z,26.76
2019-06-10T12:58:17.565Z,27.11
2019-06-10T13:03:23.638Z,27.36
2019-06-10T13:08:33.045Z,27.76
2019-06-10T13:13:38.131Z,27.91
2019-06-10T13:18:43.691Z,28.32
2019-06-10T13:23:48.950Z,28.68
2019-06-10T13:28:54.271Z,29.06
2019-06-10T13:34:05.125Z,28.91
2019-06-10T13:39:10.467Z,29.51
2019-06-10T13:44:16.977Z,29.51
2019-06-10T13:49:25.463Z,30.12
2019-06-10T13:54:30.035Z,30.57
2019-06-10T13:59:35.294Z,30.71
2019-06-10T14:04:42.367Z,30.12
2019-06-10T14:09:47.781Z,30.41
2019-06-10T14:14:54.555Z,30.33
2019-06-10T14:20:00.167Z,30.90
2019-06-10T14:25:11.421Z,31.80
2019-06-10T14:30:17.184Z,31.80
2019-06-10T14:35:22.789Z,31.65
2019-06-10T14:40:32.293Z,31.93
2019-06-10T14:45:37.025Z,32.24
2019-06-10T14:50:43.432Z,32.25
2019-06-10T14:55:48.965Z,32.25
2019-06-10T15:00:54.801Z,31.76
2019-06-10T15:06:02.910Z,31.33
2019-06-10T15:11:07.616Z,30.51
2019-06-10T15:16:14.276Z,30.02
2019-06-10T15:21:19.560Z,29.40
2019-06-10T15:26:26.005Z,29.18
2019-06-10T15:31:31.309Z,29.34
2019-06-10T15:36:36.575Z,29.49
2019-06-10T15:41:43.019Z,29.31
2019-06-10T15:46:48.524Z,29.31
2019-06-10T15:51:55.022Z,28.36
2019-06-10T15:57:02.985Z,28.17
2019-06-10T16:02:08.391Z,28.04
2019-06-10T16:07:15.898Z,27.86
2019-06-10T16:12:24.912Z,27.34
2019-06-10T16:17:30.019Z,26.94
2019-06-10T16:22:35.288Z,26.94
2019-06-10T16:27:48.510Z,26.60
2019-06-10T16:32:47.482Z,26.15
2019-06-10T16:37:56.542Z,26.15
2019-06-10T16:43:00.057Z,26.06
2019-06-10T16:48:05.857Z,25.98
2019-06-10T16:53:13.446Z,25.81
2019-06-10T16:58:18.359Z,25.57
2019-06-10T17:03:26.750Z,25.44
2019-06-10T17:08:33.504Z,25.27
2019-06-10T17:13:38.218Z,25.23
2019-06-10T17:18:44.318Z,25.22
2019-06-10T17:23:52.434Z,25.18
2019-06-10T17:28:57.961Z,24.97
2019-06-10T17:34:03.502Z,24.86
2019-06-10T17:39:09.736Z,24.67
2019-06-10T17:44:15.007Z,24.14
2019-06-10T17:49:22.606Z,23.61
2019-06-10T17:54:28.282Z,23.22
2019-06-10T17:59:35.373Z,21.14
2019-06-10T18:04:42.090Z,20.17
2019-06-10T18:09:47.477Z,19.54
2019-06-10T18:14:52.732Z,19.00
2019-06-10T18:19:57.980Z,19.07
2019-06-10T18:25:03.309Z,19.13
2019-06-10T18:30:13.306Z,18.87
2019-06-10T18:35:17.882Z,18.88
2019-06-10T18:40:23.537Z,18.98
2019-06-10T18:45:29.807Z,18.96
2019-06-10T18:50:36.704Z,18.73
2019-06-10T18:55:43.761Z,18.60
2019-06-10T19:00:59.157Z,18.29
2019-06-10T19:05:56.073Z,18.03
2019-06-10T19:11:02.381Z,18.07
2019-06-10T19:16:07.854Z,18.15
2019-06-10T19:21:13.343Z,18.10
2019-06-10T19:26:18.676Z,18.16
2019-06-10T19:31:24.916Z,18.16
2019-06-10T19:36:31.492Z,18.00
2019-06-10T19:41:38.749Z,18.04
2019-06-10T19:46:44.076Z,18.01
2019-06-10T19:51:49.255Z,17.93
2019-06-10T19:56:54.572Z,17.89
2019-06-10T20:01:59.822Z,17.83
2019-06-10T20:07:05.161Z,17.58
2019-06-10T20:12:12.491Z,17.38
2019-06-10T20:17:17.781Z,17.13
2019-06-10T20:22:23.200Z,17.25
2019-06-10T20:27:28.449Z,17.28
2019-06-10T20:32:33.824Z,17.19
2019-06-10T20:37:39.602Z,17.26
2019-06-10T20:42:44.972Z,17.28
2019-06-10T20:47:53.090Z,17.22
2019-06-10T20:53:11.084Z,17.21
2019-06-10T20:58:07.324Z,17.15
2019-06-10T21:03:11.337Z,17.06
2019-06-10T21:08:16.954Z,16.69
2019-06-10T21:13:22.662Z,16.48
2019-06-10T21:18:28.037Z,16.57
2019-06-10T21:23:33.327Z,16.62
2019-06-10T21:28:38.850Z,16.49
2019-06-10T21:33:47.368Z,16.45
2019-06-10T21:38:55.407Z,16.42
2019-06-10T21:43:59.671Z,16.45
2019-06-10T21:49:05.089Z,16.42
2019-06-10T21:54:12.006Z,16.46
2019-06-10T21:59:17.319Z,16.43
2019-06-10T22:04:22.610Z,16.36
2019-06-10T22:09:27.740Z,16.46
2019-06-10T22:14:33.288Z,16.39
2019-06-10T22:19:38.540Z,16.41
2019-06-10T22:24:44.690Z,16.46
2019-06-10T22:29:51.221Z,16.41
2019-06-10T22:34:57.306Z,16.37
2019-06-10T22:40:03.262Z,16.41
2019-06-10T22:45:08.915Z,16.37
2019-06-10T22:50:15.016Z,16.25
2019-06-10T22:55:20.430Z,16.23
2019-06-10T23:00:25.682Z,16.23
2019-06-10T23:05:33.095Z,16.06
2019-06-10T23:10:37.921Z,15.99
2019-06-10T23:15:43.184Z,16.01
2019-06-10T23:20:49.210Z,16.05
2019-06-10T23:25:56.013Z,16.04
2019-06-10T23:31:02.441Z,15.95
2019-06-10T23:36:08.341Z,15.92
2019-06-10T23:41:13.629Z,15.86
2019-06-10T23:46:18.878Z,15.85
2019-06-10T23:51:24.138Z,15.78
2019-06-10T23:56:29.396Z,15.65
